createdAt,value
2023-02-19T00:04:35.607Z,2.00
2023-02-19T00:07:03.727Z,3.00
2023-02-19T00:09:31.961Z,3.00
2023-02-19T00:11:59.896Z,2.00
2023-02-19T00:14:28.061Z,2.00
2023-02-19T00:16:56.259Z,3.50
2023-02-19T00:19:24.704Z,3.00
2023-02-19T00:21:54.042Z,3.00
2023-02-19T00:24:22.503Z,5.50
2023-02-19T00:26:50.639Z,4.00
2023-02-19T00:29:21.732Z,6.00
2023-02-19T00:31:50.736Z,4.00
2023-02-19T00:34:18.808Z,4.00
2023-02-19T00:36:46.858Z,6.00
2023-02-19T00:41:45.868Z,8.00
2023-02-19T00:46:46.207Z,6.00
2023-02-19T00:49:20.828Z,6.00
2023-02-19T00:54:18.384Z,7.00
2023-02-19T00:56:47.136Z,7.50
2023-02-19T00:59:15.535Z,6.00
2023-02-19T01:01:45.125Z,5.00
2023-02-19T01:04:13.820Z,1.00
2023-02-19T01:06:42.204Z,3.00
2023-02-19T01:09:10.477Z,6.00
2023-02-19T01:11:38.764Z,2.00
2023-02-19T01:14:07.029Z,4.50
2023-02-19T01:16:35.561Z,2.00
2023-02-19T01:19:04.057Z,3.00
2023-02-19T01:21:32.133Z,3.00
2023-02-19T01:24:01.574Z,4.00
2023-02-19T01:26:32.284Z,2.00
2023-02-19T01:29:01.339Z,2.00
2023-02-19T01:31:30.332Z,4.00
2023-02-19T01:34:21.586Z,3.00
2023-02-19T01:36:49.759Z,6.00
2023-02-19T01:39:17.840Z,6.00
2023-02-19T01:41:46.076Z,5.00
2023-02-19T01:44:19.104Z,4.00
2023-02-19T01:46:48.807Z,6.00
2023-02-19T01:49:29.272Z,4.50
2023-02-19T01:52:05.504Z,6.00
2023-02-19T01:54:38.349Z,6.00
2023-02-19T01:57:10.966Z,6.00
2023-02-19T01:59:40.099Z,6.00
2023-02-19T02:02:09.578Z,6.67
2023-02-19T02:04:37.627Z,7.00
2023-02-19T02:08:04.756Z,6.00
2023-02-19T02:11:10.711Z,7.00
2023-02-19T02:14:39.542Z,5.00
2023-02-19T02:18:26.685Z,6.00
2023-02-19T02:25:20.989Z,3.50
2023-02-19T02:28:48.672Z,4.00
2023-02-19T02:32:21.949Z,6.00
2023-02-19T02:36:35.162Z,6.00
2023-02-19T02:40:24.562Z,6.00
2023-02-19T02:44:14.911Z,5.00
2023-02-19T02:48:03.373Z,8.00
2023-02-19T02:51:52.965Z,8.00
2023-02-19T02:55:06.335Z,6.00
2023-02-19T02:58:52.291Z,7.00
2023-02-19T03:02:40.934Z,7.00
2023-02-19T03:06:00.134Z,7.00
2023-02-19T03:09:49.758Z,6.00
2023-02-19T03:13:38.846Z,6.00
2023-02-19T03:17:10.475Z,3.00
2023-02-19T03:21:00.989Z,3.00
2023-02-19T03:24:49.470Z,3.00
2023-02-19T03:28:36.602Z,6.00
2023-02-19T03:32:26.667Z,5.00
2023-02-19T03:36:15.468Z,3.00
2023-02-19T03:39:43.746Z,4.00
2023-02-19T03:43:27.874Z,3.00
2023-02-19T03:51:02.946Z,3.00
2023-02-19T03:55:07.736Z,2.00
2023-02-19T04:08:45.015Z,2.00
2023-02-19T04:12:33.558Z,2.00
2023-02-19T04:18:57.990Z,2.00
2023-02-19T04:22:27.294Z,2.00
2023-02-19T04:25:58.337Z,5.00
2023-02-19T04:29:37.754Z,2.00
2023-02-19T04:33:07.457Z,4.00
2023-02-19T04:36:16.636Z,4.00
2023-02-19T04:40:05.154Z,2.00
2023-02-19T04:43:19.650Z,2.00
2023-02-19T04:46:49.402Z,3.00
2023-02-19T04:50:39.608Z,4.00
2023-02-19T04:54:28.958Z,4.00
2023-02-19T04:58:17.457Z,4.00
2023-02-19T05:01:27.549Z,7.00
2023-02-19T05:04:43.378Z,6.50
2023-02-19T05:08:33.117Z,6.00
2023-02-19T05:12:02.768Z,6.50
2023-02-19T05:15:16.676Z,7.00
2023-02-19T05:18:52.772Z,8.00
2023-02-19T05:22:32.763Z,10.00
2023-02-19T05:28:36.993Z,11.00
2023-02-19T05:31:50.766Z,13.00
2023-02-19T05:35:40.105Z,14.00
2023-02-19T05:38:55.552Z,17.00
2023-02-19T05:42:22.510Z,14.50
2023-02-19T05:45:51.605Z,13.00
2023-02-19T05:57:06.102Z,9.00
2023-02-19T06:03:57.103Z,11.00
2023-02-19T06:07:08.845Z,7.50
2023-02-19T06:10:06.507Z,7.50
2023-02-19T06:15:28.603Z,6.50
2023-02-19T06:17:56.768Z,8.00
2023-02-19T06:20:26.303Z,3.00
2023-02-19T06:22:54.524Z,7.00
2023-02-19T06:25:22.448Z,6.00
2023-02-19T06:27:50.429Z,6.50
2023-02-19T06:31:18.673Z,6.00
2023-02-19T06:34:48.415Z,6.00
2023-02-19T06:37:58.004Z,8.00
2023-02-19T06:41:08.284Z,5.00
2023-02-19T06:44:40.876Z,6.00
2023-02-19T06:47:51.141Z,4.00
2023-02-19T06:51:40.280Z,3.00
2023-02-19T06:55:10.009Z,6.00
2023-02-19T06:58:39.681Z,5.00
2023-02-19T07:02:10.709Z,6.00
2023-02-19T07:05:21.390Z,6.00
2023-02-19T07:09:10.689Z,7.00
2023-02-19T07:12:48.857Z,6.00
2023-02-19T07:15:52.099Z,8.00
2023-02-19T07:18:36.203Z,7.00
2023-02-19T07:21:10.259Z,11.00
2023-02-19T07:23:39.519Z,7.00
2023-02-19T07:26:44.163Z,11.00
2023-02-19T07:30:24.717Z,9.00
2023-02-19T07:34:12.241Z,9.33
2023-02-19T07:37:35.866Z,8.00
2023-02-19T07:40:55.076Z,11.00
2023-02-19T07:43:45.280Z,11.00
2023-02-19T07:46:14.539Z,11.00
2023-02-19T07:48:51.214Z,10.50
2023-02-19T07:51:44.653Z,12.00
2023-02-19T07:54:52.360Z,12.00
2023-02-19T07:58:01.600Z,8.50
2023-02-19T08:00:33.238Z,9.00
2023-02-19T08:03:50.624Z,13.00
2023-02-19T08:07:07.383Z,11.00
2023-02-19T08:10:36.733Z,13.00
2023-02-19T08:14:06.196Z,11.00
2023-02-19T08:17:58.609Z,14.00
2023-02-19T08:21:45.055Z,15.00
2023-02-19T08:25:34.059Z,16.00
2023-02-19T08:28:02.297Z,17.00
2023-02-19T08:30:32.369Z,22.50
2023-02-19T08:36:12.731Z,38.00
2023-02-19T08:39:50.277Z,28.00
2023-02-19T08:42:19.028Z,39.00
2023-02-19T08:45:28.813Z,34.50
2023-02-19T08:48:46.037Z,21.00
2023-02-19T08:52:15.235Z,18.00
2023-02-19T08:55:45.681Z,14.00
2023-02-19T08:59:33.041Z,21.00
2023-02-19T09:03:21.779Z,18.50
2023-02-19T09:07:12.058Z,18.00
2023-02-19T09:10:42.171Z,13.00
2023-02-19T09:13:51.679Z,9.00
2023-02-19T09:17:22.143Z,10.00
2023-02-19T09:20:51.883Z,9.00
2023-02-19T09:23:36.313Z,19.00
2023-02-19T09:26:08.676Z,0.50
2023-02-19T09:28:38.334Z,18.00
2023-02-19T09:31:11.888Z,17.00
2023-02-19T09:33:44.774Z,16.50
2023-02-19T09:36:33.649Z,21.00
2023-02-19T09:39:02.205Z,12.00
2023-02-19T09:44:02.752Z,4.50
2023-02-19T09:46:38.689Z,7.50
2023-02-19T09:49:14.794Z,8.00
2023-02-19T09:52:10.489Z,6.00
2023-02-19T09:54:40.125Z,7.00
2023-02-19T09:57:16.614Z,6.50
2023-02-19T09:59:49.190Z,6.50
2023-02-19T10:02:18.954Z,9.00
2023-02-19T10:04:51.388Z,12.00
2023-02-19T10:07:23.544Z,8.00
2023-02-19T10:09:57.618Z,8.00
2023-02-19T10:12:29.475Z,7.00
2023-02-19T10:15:33.341Z,6.00
2023-02-19T10:18:30.973Z,11.00
2023-02-19T10:20:59.293Z,32.50
2023-02-19T10:23:27.763Z,35.00
2023-02-19T10:25:58.111Z,32.00
2023-02-19T10:28:30.243Z,30.50
2023-02-19T10:31:01.147Z,21.00
2023-02-19T10:33:29.709Z,12.50
2023-02-19T10:36:07.384Z,11.00
2023-02-19T10:38:45.291Z,3.00
2023-02-19T10:41:22.972Z,5.00
2023-02-19T10:44:00.416Z,5.00
2023-02-19T10:46:33.220Z,6.00
2023-02-19T10:49:15.639Z,3.00
2023-02-19T10:51:44.172Z,5.00
2023-02-19T10:54:24.654Z,4.00
2023-02-19T10:56:52.800Z,5.00
2023-02-19T10:59:28.912Z,5.00
2023-02-19T11:02:17.548Z,3.00
2023-02-19T11:05:07.687Z,3.00
2023-02-19T11:07:45.149Z,5.00
2023-02-19T11:10:42.463Z,6.00
2023-02-19T11:13:17.125Z,3.00
2023-02-19T11:15:53.256Z,5.50
2023-02-19T11:18:31.318Z,8.00
2023-02-19T11:21:02.868Z,5.50
2023-02-19T11:23:37.300Z,9.00
2023-02-19T11:26:16.552Z,7.00
2023-02-19T11:28:45.092Z,5.00
2023-02-19T11:31:19.513Z,8.50
2023-02-19T11:33:50.800Z,10.00
2023-02-19T11:36:26.807Z,13.00
2023-02-19T11:38:56.640Z,11.00
2023-02-19T11:41:57.359Z,5.00
2023-02-19T11:44:39.927Z,9.00
2023-02-19T11:50:12.818Z,9.50
2023-02-19T11:52:52.702Z,10.00
2023-02-19T11:55:39.152Z,8.00
2023-02-19T11:59:00.989Z,11.00
2023-02-19T12:01:38.863Z,11.00
2023-02-19T12:04:25.650Z,11.00
2023-02-19T12:07:12.527Z,13.00
2023-02-19T12:10:25.473Z,15.00
2023-02-19T12:13:38.816Z,14.50
2023-02-19T12:16:28.710Z,12.00
2023-02-19T12:19:24.154Z,12.50
2023-02-19T12:22:33.521Z,12.00
2023-02-19T12:25:40.275Z,14.00
2023-02-19T12:28:31.577Z,14.00
2023-02-19T12:31:35.079Z,9.50
2023-02-19T12:34:24.922Z,14.00
2023-02-19T12:37:23.163Z,10.00
2023-02-19T12:41:03.477Z,10.00
2023-02-19T12:44:56.479Z,14.00
2023-02-19T12:48:32.316Z,12.00
2023-02-19T12:52:27.678Z,11.00
2023-02-19T12:56:56.528Z,6.00
2023-02-19T13:00:50.461Z,6.50
2023-02-19T13:04:53.609Z,6.00
2023-02-19T13:09:16.744Z,6.50
2023-02-19T13:16:58.777Z,5.00
2023-02-19T13:21:03.308Z,11.00
2023-02-19T13:25:15.077Z,20.00
2023-02-19T13:29:06.287Z,11.50
2023-02-19T13:32:22.075Z,10.50
2023-02-19T13:36:00.311Z,3.00
2023-02-19T13:38:28.770Z,6.00
2023-02-19T13:41:00.398Z,8.00
2023-02-19T13:43:34.985Z,9.00
2023-02-19T13:46:08.328Z,8.00
2023-02-19T13:48:39.528Z,8.00
2023-02-19T13:53:45.150Z,8.50
2023-02-19T13:56:31.700Z,5.00
2023-02-19T13:59:31.467Z,8.50
2023-02-19T14:03:05.265Z,7.00
2023-02-19T14:07:01.553Z,9.00
2023-02-19T14:10:51.617Z,7.33
2023-02-19T14:13:47.885Z,7.00
2023-02-19T14:17:40.781Z,7.00
2023-02-19T14:20:09.107Z,6.00
2023-02-19T14:22:46.452Z,10.00
2023-02-19T14:26:14.569Z,11.50
2023-02-19T14:28:47.261Z,7.00
2023-02-19T14:31:32.370Z,11.50
2023-02-19T14:34:22.989Z,6.50
2023-02-19T14:37:41.406Z,7.00
2023-02-19T14:45:21.222Z,11.00
2023-02-19T14:49:38.841Z,11.00
2023-02-19T14:53:30.413Z,11.00
2023-02-19T14:57:07.884Z,12.00
2023-02-19T15:01:05.583Z,13.00
2023-02-19T15:03:56.627Z,11.00
2023-02-19T15:06:27.327Z,10.00
2023-02-19T15:09:55.784Z,7.00
2023-02-19T15:12:32.572Z,6.00
2023-02-19T15:15:04.995Z,7.00
2023-02-19T15:17:38.084Z,8.00
2023-02-19T15:20:11.617Z,6.00
2023-02-19T15:22:41.664Z,6.00
2023-02-19T15:25:26.534Z,11.00
2023-02-19T15:27:54.606Z,11.00
2023-02-19T15:30:28.555Z,14.50
2023-02-19T15:33:00.703Z,10.00
2023-02-19T15:35:32.740Z,7.00
2023-02-19T15:38:01.016Z,8.00
2023-02-19T15:41:29.487Z,10.00
2023-02-19T15:45:41.576Z,10.00
2023-02-19T15:48:22.910Z,11.00
2023-02-19T15:51:51.235Z,10.00
2023-02-19T15:55:49.886Z,7.50
2023-02-19T15:59:46.912Z,6.00
2023-02-19T16:07:07.688Z,9.00
2023-02-19T16:13:36.187Z,12.00
2023-02-19T16:19:00.766Z,9.00
2023-02-19T16:22:28.877Z,13.50
2023-02-19T16:26:08.876Z,13.00
2023-02-19T16:29:58.793Z,6.00
2023-02-19T16:34:02.141Z,12.00
2023-02-19T16:37:51.393Z,13.33
2023-02-19T16:41:51.295Z,15.00
2023-02-19T16:45:42.380Z,14.00
2023-02-19T16:48:31.813Z,13.00
2023-02-19T16:51:00.100Z,14.00
2023-02-19T16:54:28.921Z,12.00
2023-02-19T16:58:19.051Z,11.00
2023-02-19T17:00:47.487Z,10.00
2023-02-19T17:04:16.268Z,12.50
2023-02-19T17:08:06.930Z,13.00
2023-02-19T17:10:56.292Z,18.00
2023-02-19T17:14:25.093Z,10.00
2023-02-19T17:18:15.121Z,12.00
2023-02-19T17:22:14.669Z,7.00
2023-02-19T17:26:04.376Z,12.00
2023-02-19T17:28:54.035Z,10.00
2023-02-19T17:31:22.369Z,9.00
2023-02-19T17:33:51.313Z,9.50
2023-02-19T17:36:30.300Z,7.00
2023-02-19T17:45:21.981Z,6.50
2023-02-19T17:50:05.846Z,10.00
2023-02-19T17:52:49.259Z,10.00
2023-02-19T17:58:16.372Z,9.00
2023-02-19T18:00:44.753Z,11.00
2023-02-19T18:03:13.077Z,10.00
2023-02-19T18:05:41.144Z,10.00
2023-02-19T18:08:09.238Z,11.50
2023-02-19T18:10:37.593Z,14.00
2023-02-19T18:13:05.785Z,14.00
2023-02-19T18:15:33.951Z,19.00
2023-02-19T18:18:02.410Z,17.00
2023-02-19T18:20:31.823Z,15.00
2023-02-19T18:23:00.273Z,14.00
2023-02-19T18:25:28.550Z,13.00
2023-02-19T18:27:57.969Z,13.50
2023-02-19T18:30:26.297Z,10.00
2023-02-19T18:35:22.267Z,12.00
2023-02-19T18:37:54.569Z,11.00
2023-02-19T18:40:26.021Z,11.00
2023-02-19T18:42:54.600Z,12.00
2023-02-19T18:45:22.980Z,11.00
2023-02-19T18:47:51.306Z,11.00
2023-02-19T18:50:20.401Z,10.50
2023-02-19T18:52:48.568Z,10.00
2023-02-19T18:55:16.616Z,7.00
2023-02-19T18:57:45.903Z,10.00
2023-02-19T19:02:49.771Z,11.00
2023-02-19T19:05:23.701Z,13.00
2023-02-19T19:07:54.170Z,13.00
2023-02-19T19:10:22.958Z,10.00
2023-02-19T19:12:51.879Z,10.00
2023-02-19T19:15:21.099Z,11.00
2023-02-19T19:17:50.246Z,13.00
2023-02-19T19:20:20.523Z,13.00
2023-02-19T19:22:50.675Z,12.50
2023-02-19T19:25:19.957Z,13.50
2023-02-19T19:27:50.378Z,13.00
2023-02-19T19:30:20.161Z,14.00
2023-02-19T19:32:51.449Z,16.00
2023-02-19T19:35:21.444Z,0.00
2023-02-19T19:37:50.071Z,12.00
2023-02-19T19:40:18.902Z,13.00
2023-02-19T19:42:47.053Z,17.00
2023-02-19T19:45:15.959Z,21.00
2023-02-19T19:47:44.118Z,18.00
2023-02-19T19:50:14.698Z,20.00
2023-02-19T19:52:42.734Z,20.00
2023-02-19T19:55:10.948Z,20.00
2023-02-19T19:57:40.846Z,14.00
2023-02-19T20:00:12.895Z,23.00
2023-02-19T20:02:41.219Z,13.00
2023-02-19T20:05:09.878Z,19.00
2023-02-19T20:07:37.994Z,17.00
2023-02-19T20:10:08.473Z,17.50
2023-02-19T20:12:36.624Z,17.00
2023-02-19T20:15:04.964Z,19.00
2023-02-19T20:17:33.091Z,21.00
2023-02-19T20:20:01.480Z,20.00
2023-02-19T20:22:29.702Z,17.50
2023-02-19T20:24:58.129Z,14.50
2023-02-19T20:27:26.252Z,17.50
2023-02-19T20:29:54.347Z,16.00
2023-02-19T20:32:22.565Z,14.00
2023-02-19T20:34:51.352Z,17.00
2023-02-19T20:37:19.500Z,16.00
2023-02-19T20:39:47.557Z,18.00
2023-02-19T20:42:17.069Z,17.00
2023-02-19T20:44:45.462Z,19.00
2023-02-19T20:47:13.643Z,20.00
2023-02-19T20:49:46.344Z,22.00
2023-02-19T20:52:16.866Z,17.00
2023-02-19T20:54:45.096Z,22.00
2023-02-19T20:57:14.130Z,20.00
2023-02-19T20:59:44.387Z,15.33
2023-02-19T21:04:46.196Z,17.50
2023-02-19T21:07:15.235Z,16.00
2023-02-19T21:09:43.370Z,14.00
2023-02-19T21:12:52.629Z,17.00
2023-02-19T21:15:20.664Z,14.00
2023-02-19T21:17:49.995Z,13.00
2023-02-19T21:20:18.265Z,13.00
2023-02-19T21:22:46.388Z,15.00
2023-02-19T21:26:16.257Z,15.00
2023-02-19T21:29:45.004Z,16.00
2023-02-19T21:32:34.852Z,13.00
2023-02-19T21:37:31.349Z,12.00
2023-02-19T21:40:00.620Z,10.50
2023-02-19T21:42:28.818Z,13.00
2023-02-19T21:44:56.766Z,12.00
2023-02-19T21:47:24.874Z,11.00
2023-02-19T21:49:53.030Z,12.00
2023-02-19T21:52:23.555Z,13.00
2023-02-19T21:54:51.701Z,12.00
2023-02-19T21:57:19.697Z,13.00
2023-02-19T21:59:47.793Z,13.00
2023-02-19T22:02:19.891Z,14.00
2023-02-19T22:04:53.808Z,12.00
2023-02-19T22:07:22.275Z,10.00
2023-02-19T22:11:31.863Z,10.00
2023-02-19T22:15:22.384Z,13.00
2023-02-19T22:19:30.882Z,10.00
2023-02-19T22:24:49.052Z,10.00
2023-02-19T22:27:17.150Z,10.00
2023-02-19T22:29:45.363Z,12.00
2023-02-19T22:32:53.911Z,10.00
2023-02-19T22:35:22.317Z,10.00
2023-02-19T22:37:50.367Z,16.00
2023-02-19T22:40:18.511Z,14.00
2023-02-19T22:43:47.146Z,10.00
2023-02-19T22:47:37.650Z,12.00
2023-02-19T22:51:31.062Z,13.00
2023-02-19T22:55:21.060Z,10.00
2023-02-19T22:59:11.108Z,13.00
2023-02-19T23:01:41.752Z,10.50
2023-02-19T23:04:52.223Z,11.00
2023-02-19T23:08:05.803Z,12.00
2023-02-19T23:10:33.802Z,16.00
2023-02-19T23:13:46.921Z,10.00
2023-02-19T23:16:43.194Z,13.00
2023-02-19T23:19:14.700Z,17.00
2023-02-19T23:21:44.763Z,14.50
2023-02-19T23:25:13.201Z,12.67
2023-02-19T23:28:12.566Z,12.00
2023-02-19T23:30:40.802Z,12.00
2023-02-19T23:34:31.181Z,12.00
2023-02-19T23:37:00.364Z,12.00
2023-02-19T23:39:29.312Z,9.00
2023-02-19T23:41:58.028Z,8.00
2023-02-19T23:45:10.488Z,9.50
2023-02-19T23:48:40.533Z,9.00
2023-02-19T23:51:09.586Z,9.00
2023-02-19T23:53:37.732Z,9.00
2023-02-19T23:56:06.348Z,8.00
2023-02-19T23:58:34.411Z,9.00
